createdAt,value
2017-04-11T00:00:06.406Z,55.1
2017-04-11T00:10:06.367Z,54.6
2017-04-11T00:20:06.374Z,54.6
2017-04-11T00:30:06.368Z,54.6
2017-04-11T00:40:06.396Z,55.1
2017-04-11T00:50:06.372Z,54.1
2017-04-11T01:00:06.370Z,55.7
2017-04-11T01:10:06.366Z,54.6
2017-04-11T01:20:06.400Z,54.6
2017-04-11T01:30:06.374Z,54.6
2017-04-11T01:40:06.371Z,54.1
2017-04-11T01:50:06.371Z,55.1
2017-04-11T02:00:06.384Z,54.6
2017-04-11T02:10:06.368Z,54.6
2017-04-11T02:20:06.399Z,54.1
2017-04-11T02:30:06.383Z,54.1
2017-04-11T02:40:06.367Z,54.6
2017-04-11T02:50:06.380Z,55.1
2017-04-11T03:00:06.396Z,54.1
2017-04-11T03:10:06.375Z,54.1
2017-04-11T03:20:06.342Z,55.1
2017-04-11T03:30:06.367Z,54.1
2017-04-11T03:40:06.366Z,54.1
2017-04-11T03:50:06.367Z,54.6
2017-04-11T04:00:06.367Z,54.1
2017-04-11T04:10:06.370Z,54.1
2017-04-11T04:20:06.368Z,54.1
2017-04-11T04:30:06.406Z,53.5
2017-04-11T04:40:06.367Z,54.1
2017-04-11T04:50:06.449Z,53.5
2017-04-11T05:00:06.400Z,53.5
2017-04-11T05:10:06.374Z,54.1
2017-04-11T05:20:06.371Z,54.1
2017-04-11T05:30:06.371Z,53.5
2017-04-11T05:40:06.368Z,54.1
2017-04-11T05:50:06.388Z,53.5
2017-04-11T06:00:06.368Z,53.5
2017-04-11T06:10:06.367Z,54.1
2017-04-11T06:20:06.380Z,54.1
2017-04-11T06:30:06.371Z,53.5
2017-04-11T06:40:06.371Z,54.1
2017-04-11T06:50:06.400Z,53.5
2017-04-11T07:00:06.370Z,54.6
2017-04-11T07:10:06.398Z,53.5
2017-04-11T07:20:06.409Z,54.1
2017-04-11T07:30:06.386Z,54.1
2017-04-11T07:40:06.367Z,54.1
2017-04-11T07:50:06.391Z,54.1
2017-04-11T08:00:06.366Z,54.1
2017-04-11T08:10:06.372Z,54.1
2017-04-11T08:20:06.366Z,54.1
2017-04-11T08:30:06.389Z,54.1
2017-04-11T08:40:06.392Z,54.6
2017-04-11T08:50:06.383Z,55.1
2017-04-11T09:00:06.388Z,55.1
2017-04-11T09:10:06.352Z,54.1
2017-04-11T09:20:06.392Z,54.6
2017-04-11T09:30:06.386Z,55.1
2017-04-11T09:40:06.393Z,55.1
2017-04-11T09:50:06.360Z,55.1
2017-04-11T10:00:06.355Z,55.1
2017-04-11T10:10:06.390Z,55.1
2017-04-11T10:20:06.425Z,55.1
2017-04-11T10:30:06.357Z,55.1
2017-04-11T10:40:06.353Z,55.1
2017-04-11T10:50:06.358Z,55.7
2017-04-11T11:00:06.512Z,55.1
2017-04-11T11:10:06.406Z,55.7
2017-04-11T11:20:06.360Z,56.2
2017-04-11T11:30:06.397Z,55.7
2017-04-11T11:40:06.398Z,55.7
2017-04-11T11:50:06.341Z,55.7
2017-04-11T12:00:06.369Z,55.7
2017-04-11T12:10:06.374Z,56.2
2017-04-11T12:20:06.403Z,56.2
2017-04-11T12:30:06.347Z,56.2
2017-04-11T12:40:06.370Z,56.8
2017-04-11T12:50:06.370Z,56.2
2017-04-11T13:00:06.407Z,56.2
2017-04-11T13:10:06.350Z,56.8
2017-04-11T13:20:06.376Z,56.8
2017-04-11T13:30:06.369Z,56.2
2017-04-11T13:40:06.371Z,56.2
2017-04-11T13:50:06.379Z,56.2
2017-04-11T14:00:06.404Z,56.8
2017-04-11T14:10:06.377Z,56.8
2017-04-11T14:20:06.371Z,56.2
2017-04-11T14:30:06.365Z,56.2
2017-04-11T14:40:06.395Z,56.2
2017-04-11T14:50:06.364Z,56.2
2017-04-11T15:00:06.360Z,56.2
2017-04-11T15:10:04.077Z,56.8
2017-04-11T15:20:06.362Z,56.8
2017-04-11T15:30:06.362Z,56.8
2017-04-11T15:40:06.368Z,56.8
2017-04-11T15:50:06.356Z,57.3
2017-04-11T16:00:06.369Z,56.8
2017-04-11T16:10:06.407Z,57.3
2017-04-11T16:20:06.388Z,57.3
2017-04-11T16:30:06.340Z,57.3
2017-04-11T16:40:06.403Z,56.8
2017-04-11T16:50:06.369Z,56.8
2017-04-11T17:00:06.414Z,56.8
2017-04-11T17:10:06.366Z,57.3
2017-04-11T17:20:06.408Z,57.3
2017-04-11T17:30:06.386Z,56.8
2017-04-11T17:40:06.385Z,57.3
2017-04-11T17:50:06.370Z,57.3
2017-04-11T18:00:06.375Z,57.3
2017-04-11T18:10:06.377Z,57.3
2017-04-11T18:20:06.377Z,57.3
2017-04-11T18:30:06.382Z,57.3
2017-04-11T18:40:06.417Z,57.3
2017-04-11T18:50:06.418Z,56.8
2017-04-11T19:00:06.389Z,56.8
2017-04-11T19:10:06.382Z,56.8
2017-04-11T19:20:06.411Z,57.3
2017-04-11T19:30:06.451Z,57.3
2017-04-11T19:40:06.379Z,56.8
2017-04-11T19:50:06.408Z,57.3
2017-04-11T20:00:06.395Z,57.3
2017-04-11T20:10:06.388Z,56.8
2017-04-11T20:20:05.880Z,56.8
2017-04-11T20:30:06.373Z,57.3
2017-04-11T20:40:06.373Z,57.3
2017-04-11T20:50:06.373Z,57.3
2017-04-11T21:00:06.408Z,57.3
2017-04-11T21:10:06.378Z,56.8
2017-04-11T21:20:06.366Z,57.3
2017-04-11T21:30:06.408Z,57.3
2017-04-11T21:40:06.372Z,56.8
2017-04-11T21:50:06.409Z,56.8
2017-04-11T22:00:33.647Z,57.3
2017-04-11T22:10:33.635Z,56.8
2017-04-11T22:20:16.369Z,56.8
2017-04-11T22:30:16.366Z,57.3
2017-04-11T22:40:16.368Z,57.3
2017-04-11T22:50:16.367Z,57.3
2017-04-11T23:00:16.409Z,56.8
2017-04-11T23:10:16.371Z,56.2
2017-04-11T23:20:16.386Z,56.2
2017-04-11T23:30:16.368Z,56.2
2017-04-11T23:40:16.369Z,56.2
2017-04-11T23:50:16.374Z,56.8
